Aviation Digital Data Service (ADDS)

Output produced by METARs form (2201 UTC 10 February 2016)
found at http://aviationweather.gov/adds/metars/
 
KLAX 102112Z 1021/1124 27009KT P6SM FEW090 SCT250 
     FM110400 VRB03KT P6SM SKC 
     FM112100 27008KT P6SM SKC